KDNL/DNL METAR and TAF weather

Enter ICAO airport designator
Station Type Date Time Source
KDNL METAR 2022/11/26 08:53 UTC NOAA

KDNL 260853Z AUTO 05004KT 10SM CLR 12/09 A3014 RMK AO2 SLP204 T01220089 51006 $


Station Type Date Time Source
KDNL Decoded METAR 2022/11/26 08:53 UTC NOAA

AUGUSTA DANIEL FIELD, GA, United States (KDNL) 33-28N 82-02W 130M
Nov 26, 2022 - 03:53 AM EST / 2022.11.26 0853 UTC
Wind: from the NE (050 degrees) at 5 MPH (4 KT):0
Visibility: 10 mile(s):0
Sky conditions: clear
Temperature: 54.0 F (12.2 C)
Dew Point: 48.0 F (8.9 C)
Relative Humidity: 80%
Pressure (altimeter): 30.14 in. Hg (1020 hPa)
Pressure tendency: 0.02 inches (0.6 hPa) higher than three hours ago
ob: KDNL 260853Z AUTO 05004KT 10SM CLR 12/09 A3014 RMK AO2 SLP204 T01220089 51006
cycle: 9

Station Type Date Time Source
KDNL TAF 2022/11/26 09:16 UTC NOAA

TAF
AMD KDNL 260914Z 2609/2706 05005KT P6SM SCT250
FM261000 10005KT P6SM BKN250
FM261900 14005KT P6SM BKN120
FM270400 08004KT P6SM OVC025

Example: see airport list